Time;durP1;ratioP1;P1;durP2;ratioP2;P2;SDS_P1;SDS_P2;PMS_P1;PMS_P2;Temp;Humidity;BMP_temperature;BMP_pressure;BME280_temperature;BME280_humidity;BME280_pressure;Samples;Min_cycle;Max_cycle;Signal;HPM_P1;HPM_P2
2022/01/17 00:02:17;;;;;;;18.57;2.70;;;;;;;5.96;85.99;102177.34;5061068;28;20177;-72
2022/01/17 00:04:43;;;;;;;21.90;3.20;;;;;;;5.93;86.50;102184.78;5059720;28;20197;-72
2022/01/17 00:07:08;;;;;;;20.00;3.20;;;;;;;5.95;85.91;102193.41;5068916;28;20208;-72
2022/01/17 00:09:33;;;;;;;15.50;3.30;;;;;;;5.94;86.25;102189.13;5069099;28;20579;-73
2022/01/17 00:11:59;;;;;;;18.67;3.53;;;;;;;5.90;86.05;102182.09;5067432;28;20920;-71
2022/01/17 00:14:29;;;;;;;17.20;2.90;;;;;;;5.89;85.57;102160.88;5058768;28;20192;-73
2022/01/17 00:17:08;;;;;;;11.83;3.30;;;;;;;5.87;85.78;102159.91;5055021;28;20258;-73
2022/01/17 00:19:42;;;;;;;16.97;3.10;;;;;;;5.84;85.62;102172.44;5067329;28;20572;-71
2022/01/17 00:22:08;;;;;;;15.23;2.70;;;;;;;5.87;85.06;102169.19;5069196;28;20196;-72
2022/01/17 00:24:34;;;;;;;19.17;2.77;;;;;;;5.86;84.78;102142.03;5060702;28;20188;-71
2022/01/17 00:26:59;;;;;;;14.37;3.17;;;;;;;5.85;85.04;102132.66;5063403;28;20259;-72
2022/01/17 00:29:25;;;;;;;22.40;3.53;;;;;;;5.82;85.08;102135.91;5063598;28;20207;-74
2022/01/17 00:31:51;;;;;;;15.03;3.13;;;;;;;5.85;84.93;102145.38;5066773;28;20266;-72
2022/01/17 00:34:16;;;;;;;15.00;2.77;;;;;;;5.87;84.29;102149.75;5083844;28;20273;-71
2022/01/17 00:36:42;;;;;;;11.40;2.80;;;;;;;5.87;83.59;102137.03;5059794;28;20634;-72
2022/01/17 00:39:07;;;;;;;13.30;2.63;;;;;;;5.91;83.57;102136.44;5060504;28;20181;-72
2022/01/17 00:41:32;;;;;;;22.03;3.37;;;;;;;5.89;83.19;102116.81;5068387;28;20193;-71
2022/01/17 00:43:58;;;;;;;18.10;3.07;;;;;;;5.90;82.75;102137.19;5068666;28;20184;-72
2022/01/17 00:46:23;;;;;;;15.20;2.47;;;;;;;5.95;82.75;102143.41;5054841;28;20212;-72
2022/01/17 00:48:51;;;;;;;17.70;2.73;;;;;;;5.96;82.62;102152.84;5059919;28;20224;-71
2022/01/17 00:51:16;;;;;;;14.33;3.00;;;;;;;5.97;82.44;102121.53;5068770;28;20189;-73
2022/01/17 00:53:41;;;;;;;13.53;2.60;;;;;;;5.98;82.23;102123.28;5067977;28;20196;-73
2022/01/17 00:56:07;;;;;;;13.43;3.00;;;;;;;5.97;81.85;102128.25;5067670;28;20189;-72
2022/01/17 00:58:33;;;;;;;14.73;2.90;;;;;;;5.96;81.66;102142.66;5059730;28;20482;-72
2022/01/17 01:00:58;;;;;;;13.17;3.27;;;;;;;6.01;81.45;102145.47;5065772;28;20197;-72
2022/01/17 01:03:24;;;;;;;12.73;2.60;;;;;;;6.02;81.53;102152.28;5062143;28;20194;-72
2022/01/17 01:05:49;;;;;;;14.20;2.80;;;;;;;6.02;81.53;102157.38;5065697;28;20251;-72
2022/01/17 01:08:14;;;;;;;14.33;3.30;;;;;;;6.02;81.73;102153.19;5064314;28;20358;-72
2022/01/17 01:10:40;;;;;;;12.60;2.60;;;;;;;6.06;81.43;102152.56;5072163;28;20185;-72
2022/01/17 01:13:05;;;;;;;15.47;2.80;;;;;;;6.04;81.56;102150.72;5071947;28;20185;-71
2022/01/17 01:18:37;;;;;;;22.67;3.30;;;;;;;6.06;81.61;102147.50;5046856;28;20212;-72
2022/01/17 01:21:42;;;;;;;16.23;2.97;;;;;;;6.09;81.59;102146.78;5066061;28;20181;-73
2022/01/17 01:29:29;;;;;;;14.83;2.73;;;;;;;6.10;82.40;102148.53;5065170;28;20214;-72
2022/01/17 01:32:01;;;;;;;17.47;4.97;;;;;;;6.10;81.97;102162.13;5060848;28;20200;-74
2022/01/17 01:34:44;;;;;;;17.60;3.27;;;;;;;6.14;81.29;102153.00;5062408;28;20181;-72
2022/01/17 01:37:10;;;;;;;13.23;2.53;;;;;;;6.17;81.80;102148.97;5065940;28;20221;-73
2022/01/17 01:39:37;;;;;;;13.90;2.87;;;;;;;6.17;80.96;102153.19;5070374;28;20185;-74
2022/01/17 01:42:04;;;;;;;14.60;3.33;;;;;;;6.18;81.49;102147.31;5068643;28;20193;-71
2022/01/17 01:44:30;;;;;;;11.97;2.60;;;;;;;6.18;81.69;102125.28;5056055;28;20202;-73
2022/01/17 01:46:58;;;;;;;14.43;4.00;;;;;;;6.19;81.69;102132.16;5060864;28;20217;-72
2022/01/17 01:49:24;;;;;;;12.50;3.40;;;;;;;6.19;81.72;102142.31;5060257;28;20217;-74
2022/01/17 01:51:50;;;;;;;15.27;3.27;;;;;;;6.21;81.75;102134.78;5066152;28;20196;-75
2022/01/17 01:54:16;;;;;;;16.57;2.60;;;;;;;6.20;81.89;102117.75;5064506;28;20177;-72
2022/01/17 01:56:47;;;;;;;19.03;3.03;;;;;;;6.21;80.97;102117.00;5061341;28;20185;-71
2022/01/17 01:59:13;;;;;;;14.97;2.80;;;;;;;6.18;82.14;102117.66;5059775;28;20185;-72
2022/01/17 02:01:39;;;;;;;18.27;3.63;;;;;;;6.22;82.09;102119.59;5070283;28;20188;-72
2022/01/17 02:04:05;;;;;;;13.60;3.30;;;;;;;6.25;81.70;102116.34;5069949;28;20192;-72
2022/01/17 02:06:32;;;;;;;13.10;3.20;;;;;;;6.24;81.34;102107.88;5069609;28;20192;-72
2022/01/17 02:08:58;;;;;;;15.23;2.70;;;;;;;6.24;81.31;102096.81;5069211;28;20251;-71
2022/01/17 02:11:24;;;;;;;16.93;3.30;;;;;;;6.26;81.54;102107.97;5070002;28;20216;-72
2022/01/17 02:13:50;;;;;;;16.37;3.57;;;;;;;6.27;81.86;102118.19;5049789;28;20201;-72
2022/01/17 02:16:16;;;;;;;16.27;3.10;;;;;;;6.30;81.18;102125.09;5060068;28;20197;-72
2022/01/17 02:18:44;;;;;;;17.30;3.30;;;;;;;6.30;82.14;102120.03;5060682;28;20224;-73
2022/01/17 02:21:20;;;;;;;13.50;2.70;;;;;;;6.31;81.46;102117.56;5058647;28;20249;-72
2022/01/17 02:23:49;;;;;;;22.83;4.53;;;;;;;6.32;81.99;102105.75;5062114;28;20196;-72
2022/01/17 02:26:16;;;;;;;12.40;2.77;;;;;;;6.32;81.04;102111.72;5062192;28;20239;-72
2022/01/17 02:28:50;;;;;;;15.77;2.63;;;;;;;6.34;81.56;102115.22;5056985;28;20698;-72
2022/01/17 02:31:17;;;;;;;21.87;3.20;;;;;;;6.39;81.50;102110.38;5065676;28;20180;-72
2022/01/17 02:33:43;;;;;;;16.33;3.33;;;;;;;6.38;81.37;102109.50;5070465;28;20267;-72
2022/01/17 02:36:09;;;;;;;19.23;3.40;;;;;;;6.41;80.79;102103.72;5069456;28;20208;-71
2022/01/17 02:38:35;;;;;;;17.07;2.93;;;;;;;6.42;80.98;102093.63;5066469;28;20205;-72
2022/01/17 02:41:00;;;;;;;19.27;2.73;;;;;;;6.44;80.67;102098.81;5069345;28;20209;-72
2022/01/17 02:43:26;;;;;;;18.03;2.60;;;;;;;6.43;80.90;102104.66;5073731;28;20200;-72
2022/01/17 02:48:27;;;;;;;16.37;3.70;;;;;;;6.43;81.71;102095.38;5067750;28;20225;-72
2022/01/17 02:50:53;;;;;;;17.53;3.27;;;;;;;6.47;81.31;102096.41;5061629;28;20637;-71
2022/01/17 02:53:19;;;;;;;15.57;3.27;;;;;;;6.50;81.37;102087.28;5068595;28;20190;-72
2022/01/17 02:55:52;;;;;;;18.50;3.70;;;;;;;6.50;81.25;102087.28;5057977;28;20196;-72
2022/01/17 02:58:20;;;;;;;16.83;3.13;;;;;;;6.51;81.98;102078.88;5055819;28;20723;-72
2022/01/17 03:00:50;;;;;;;17.40;2.83;;;;;;;6.56;81.00;102085.09;5063575;28;20546;-72
2022/01/17 03:03:18;;;;;;;16.00;3.23;;;;;;;6.58;81.42;102060.59;5063298;28;20189;-72
2022/01/17 03:05:43;;;;;;;14.93;2.90;;;;;;;6.57;81.60;102048.69;5058301;28;20200;-72
2022/01/17 03:08:09;;;;;;;21.27;3.20;;;;;;;6.57;81.73;102055.44;5062255;28;20213;-71
2022/01/17 03:10:39;;;;;;;12.50;2.90;;;;;;;6.59;81.73;102033.50;5059940;28;20863;-72
2022/01/17 03:13:18;;;;;;;16.03;3.80;;;;;;;6.60;82.12;102047.97;5054393;28;20223;-74
2022/01/17 03:15:46;;;;;;;18.47;3.50;;;;;;;6.61;81.13;102044.63;5060050;28;20195;-71
2022/01/17 03:18:12;;;;;;;16.10;3.67;;;;;;;6.61;82.12;102040.44;5057735;28;20330;-72
2022/01/17 03:20:38;;;;;;;17.77;2.93;;;;;;;6.62;82.73;102057.44;5044009;28;20284;-71
2022/01/17 03:23:08;;;;;;;13.20;3.20;;;;;;;6.64;82.37;102032.06;5068565;28;20197;-73
2022/01/17 03:25:34;;;;;;;17.07;4.03;;;;;;;6.68;81.46;102047.59;5066192;28;20280;-73
2022/01/17 03:27:59;;;;;;;17.77;2.97;;;;;;;6.64;81.66;102039.72;5057831;28;20379;-72
2022/01/17 03:30:26;;;;;;;18.33;3.30;;;;;;;6.64;81.95;102027.84;5065621;28;20780;-72
2022/01/17 03:32:51;;;;;;;15.30;2.83;;;;;;;6.66;81.75;102026.28;5069047;28;20177;-72
2022/01/17 03:35:18;;;;;;;15.10;3.27;;;;;;;6.68;81.38;102028.91;5069343;28;20677;-71
2022/01/17 03:37:44;;;;;;;18.83;3.20;;;;;;;6.63;82.14;102023.56;5057229;28;20509;-72
2022/01/17 03:40:11;;;;;;;12.73;2.83;;;;;;;6.67;82.38;102025.47;5067775;28;20192;-72
2022/01/17 03:42:37;;;;;;;20.40;2.93;;;;;;;6.71;82.22;102023.97;5067694;28;20188;-72
2022/01/17 03:45:07;;;;;;;14.47;2.97;;;;;;;6.72;82.11;102025.75;5056873;28;20192;-71
2022/01/17 03:47:34;;;;;;;15.63;3.23;;;;;;;6.68;82.26;102026.38;5064034;28;20200;-71
2022/01/17 03:49:59;;;;;;;17.87;3.83;;;;;;;6.71;82.01;102031.59;5063942;28;20213;-72
2022/01/17 03:52:24;;;;;;;13.93;2.80;;;;;;;6.70;81.43;102020.56;5053404;28;20243;-71
2022/01/17 03:54:50;;;;;;;15.07;3.17;;;;;;;6.71;82.03;102024.84;5058788;28;20212;-72
2022/01/17 03:57:15;;;;;;;14.30;3.07;;;;;;;6.75;81.01;102019.13;5064146;28;20789;-71
2022/01/17 03:59:40;;;;;;;13.37;2.77;;;;;;;6.80;80.41;102014.28;5064546;28;20251;-72
2022/01/17 04:02:06;;;;;;;12.00;3.23;;;;;;;6.79;81.30;102017.63;5066385;28;20181;-74
2022/01/17 04:04:31;;;;;;;13.60;2.67;;;;;;;6.77;81.26;102029.41;5067306;28;20196;-72
2022/01/17 04:06:56;;;;;;;13.57;3.03;;;;;;;6.82;80.33;102035.63;5057018;28;20231;-72
2022/01/17 04:09:22;;;;;;;14.23;2.47;;;;;;;6.83;81.26;102050.97;5064533;28;20204;-71
2022/01/17 04:11:47;;;;;;;19.63;3.33;;;;;;;6.82;81.14;102031.38;5065125;28;20191;-72
2022/01/17 04:14:12;;;;;;;12.87;2.47;;;;;;;6.86;80.76;102046.03;5068640;28;20196;-73
2022/01/17 04:16:38;;;;;;;15.33;3.60;;;;;;;6.88;80.63;102041.03;5060736;28;20265;-72
2022/01/17 04:19:04;;;;;;;13.07;3.07;;;;;;;6.85;81.68;102030.66;5066322;28;20668;-71
2022/01/17 04:21:34;;;;;;;15.17;2.90;;;;;;;6.84;81.29;102042.53;5067257;28;20205;-72
2022/01/17 04:24:00;;;;;;;14.07;2.60;;;;;;;6.88;81.02;102039.38;5059336;28;20220;-72
2022/01/17 04:26:26;;;;;;;18.83;3.30;;;;;;;6.87;80.69;102046.91;5058882;28;20213;-72
2022/01/17 04:28:56;;;;;;;13.93;3.40;;;;;;;6.86;81.47;102038.38;5067796;28;20247;-71
2022/01/17 04:31:21;;;;;;;12.70;2.83;;;;;;;6.87;81.12;102031.63;5068718;28;20193;-72
2022/01/17 04:33:47;;;;;;;14.50;3.13;;;;;;;6.85;81.78;102036.66;5060969;28;20186;-72
2022/01/17 04:36:12;;;;;;;15.37;2.87;;;;;;;6.88;81.24;102043.56;5064772;28;20169;-72
2022/01/17 04:38:38;;;;;;;14.40;2.70;;;;;;;6.89;81.40;102033.47;5062340;28;20221;-71
2022/01/17 04:41:12;;;;;;;15.57;3.27;;;;;;;6.92;81.34;102038.72;5059678;28;20189;-71
2022/01/17 04:46:04;;;;;;;10.57;2.90;;;;;;;6.92;81.08;102035.31;5071044;28;20671;-73
2022/01/17 04:48:30;;;;;;;20.87;4.10;;;;;;;6.96;81.74;102030.44;5071666;28;20251;-72
2022/01/17 04:50:55;;;;;;;13.43;3.47;;;;;;;6.97;81.21;102031.31;5067935;28;20216;-72
2022/01/17 04:53:21;;;;;;;15.60;3.13;;;;;;;7.00;81.56;102011.97;5061260;28;20225;-72
2022/01/17 04:55:48;;;;;;;18.63;3.33;;;;;;;7.03;81.76;102019.78;5052650;28;20229;-72
2022/01/17 04:58:14;;;;;;;17.37;3.23;;;;;;;7.01;80.94;102036.63;5069387;28;20204;-72
2022/01/17 05:00:46;;;;;;;14.40;2.87;;;;;;;6.99;82.16;102017.88;5072174;28;20258;-73
2022/01/17 05:03:13;;;;;;;15.70;3.43;;;;;;;6.97;82.25;102042.41;5064310;28;20185;-73
2022/01/17 05:05:38;;;;;;;14.37;3.17;;;;;;;6.95;82.72;102030.38;5065049;28;20191;-72
2022/01/17 05:08:04;;;;;;;17.20;3.73;;;;;;;6.90;83.38;102025.03;5071569;28;20213;-72
2022/01/17 05:10:29;;;;;;;17.67;3.23;;;;;;;6.84;85.56;102021.28;5059383;28;20971;-72
2022/01/17 05:12:55;;;;;;;14.00;3.20;;;;;;;6.76;86.46;102028.50;5058972;28;20212;-73
2022/01/17 05:15:30;;;;;;;13.17;2.60;;;;;;;6.69;88.52;102023.91;5070814;28;20189;-71
2022/01/17 05:18:24;;;;;;;14.27;3.60;;;;;;;6.64;89.12;102029.53;5060984;28;20212;-72
2022/01/17 05:20:47;;;;;;;15.23;3.50;;;;;;;6.57;89.58;102019.81;5071391;28;20192;-73
2022/01/17 05:23:12;;;;;;;19.33;3.37;;;;;;;6.61;89.52;102004.81;5069478;28;20815;-72
2022/01/17 05:25:38;;;;;;;17.53;3.00;;;;;;;6.64;89.07;102014.28;5071940;28;20185;-71
2022/01/17 05:28:04;;;;;;;15.40;4.00;;;;;;;6.66;89.31;102013.56;5068354;28;20579;-73
2022/01/17 05:30:30;;;;;;;21.83;4.07;;;;;;;6.71;88.71;102018.88;5055402;28;20265;-73
2022/01/17 05:32:58;;;;;;;16.80;3.73;;;;;;;6.74;88.04;102030.13;5065596;28;20803;-72
2022/01/17 05:35:23;;;;;;;18.07;3.53;;;;;;;6.79;87.45;102004.91;5067176;28;20201;-72
2022/01/17 05:37:49;;;;;;;16.67;3.50;;;;;;;6.78;87.51;102009.09;5067990;28;20235;-73
2022/01/17 05:40:16;;;;;;;15.17;3.40;;;;;;;6.88;86.93;101992.66;5057171;28;20205;-72
2022/01/17 05:42:42;;;;;;;14.60;3.23;;;;;;;6.88;86.92;102000.28;5068053;28;20200;-71
2022/01/17 05:45:09;;;;;;;12.97;3.17;;;;;;;6.95;86.82;101990.50;5056863;28;20211;-71
2022/01/17 05:47:34;;;;;;;19.67;3.60;;;;;;;6.98;86.87;101979.59;5068535;28;20266;-72
2022/01/17 05:50:02;;;;;;;18.80;4.47;;;;;;;7.02;86.93;102000.22;5068409;28;20258;-73
2022/01/17 05:52:29;;;;;;;17.80;3.67;;;;;;;7.05;86.67;102005.47;5063881;28;20193;-71
2022/01/17 05:54:54;;;;;;;18.03;3.93;;;;;;;7.04;86.20;102001.16;5064291;28;20987;-71
2022/01/17 05:57:20;;;;;;;19.00;3.67;;;;;;;7.02;87.39;101982.41;5057140;28;20309;-71
2022/01/17 05:59:45;;;;;;;19.60;3.77;;;;;;;7.00;87.62;101978.88;5053627;28;20182;-72
2022/01/17 06:02:10;;;;;;;17.80;3.43;;;;;;;7.05;87.64;101981.69;5061452;28;20196;-71
2022/01/17 06:04:36;;;;;;;18.87;3.93;;;;;;;7.01;87.56;101975.53;5084692;28;20197;-72
2022/01/17 06:07:03;;;;;;;17.00;3.30;;;;;;;7.03;88.22;101961.22;5064995;28;20209;-72
2022/01/17 06:09:28;;;;;;;18.83;4.07;;;;;;;7.05;87.31;101974.91;5063675;28;20246;-72
2022/01/17 06:11:53;;;;;;;20.60;3.73;;;;;;;7.07;87.98;101965.69;5066110;28;20273;-71
2022/01/17 06:14:20;;;;;;;22.23;4.53;;;;;;;7.10;88.17;101996.38;5060781;28;20188;-73
2022/01/17 06:16:46;;;;;;;26.00;4.27;;;;;;;7.10;88.21;102000.63;5061645;28;20180;-71
2022/01/17 06:19:12;;;;;;;18.87;4.53;;;;;;;7.11;88.62;101994.72;5064849;28;20185;-72
2022/01/17 06:21:37;;;;;;;25.90;4.07;;;;;;;7.10;88.27;102010.81;5068800;28;20665;-72
2022/01/17 06:24:05;;;;;;;20.97;4.20;;;;;;;7.11;88.92;102022.72;5068816;28;20177;-72
2022/01/17 06:26:32;;;;;;;20.90;4.30;;;;;;;7.11;89.36;101979.44;5061970;28;20292;-72
2022/01/17 06:28:58;;;;;;;23.83;4.90;;;;;;;7.10;88.97;101988.75;5061577;28;20693;-72
2022/01/17 06:31:23;;;;;;;20.97;4.43;;;;;;;7.15;88.94;101966.06;5068747;28;20328;-72
2022/01/17 06:33:48;;;;;;;19.40;4.37;;;;;;;7.14;88.92;101985.56;5070627;28;20185;-71
2022/01/17 06:36:14;;;;;;;14.43;4.10;;;;;;;7.17;88.59;101975.53;5070336;28;20184;-71
2022/01/17 06:38:39;;;;;;;23.60;4.20;;;;;;;7.17;88.82;101974.66;5068056;28;20252;-71
2022/01/17 06:41:04;;;;;;;18.73;3.80;;;;;;;7.15;89.07;101983.91;5070175;28;20193;-72
2022/01/17 06:43:30;;;;;;;18.50;4.37;;;;;;;7.14;89.13;101987.25;5070025;28;20189;-73
2022/01/17 06:45:55;;;;;;;26.73;4.13;;;;;;;7.12;90.34;101976.97;5063269;28;20196;-72
2022/01/17 06:48:20;;;;;;;20.33;4.90;;;;;;;7.11;91.30;102005.78;5069710;28;20240;-72
2022/01/17 06:50:46;;;;;;;22.10;4.00;;;;;;;7.09;91.33;102009.91;5050945;28;20193;-71
2022/01/17 06:53:11;;;;;;;26.97;4.63;;;;;;;7.09;92.08;102027.75;5063512;28;20193;-72
2022/01/17 06:55:36;;;;;;;24.07;5.07;;;;;;;7.07;92.10;102039.53;5059902;28;20192;-73
2022/01/17 06:58:02;;;;;;;17.47;4.27;;;;;;;7.06;92.47;102050.53;5069707;28;20209;-71
2022/01/17 07:00:27;;;;;;;22.83;4.97;;;;;;;7.06;92.70;102049.63;5085738;28;20196;-72
2022/01/17 07:02:53;;;;;;;18.57;3.63;;;;;;;7.07;92.67;102059.91;5090690;28;20193;-72
2022/01/17 07:05:18;;;;;;;26.33;4.50;;;;;;;7.12;92.61;102063.56;5072409;28;20822;-71
2022/01/17 07:07:44;;;;;;;24.80;5.40;;;;;;;7.10;93.14;102056.63;5090497;28;20231;-71
2022/01/17 07:10:10;;;;;;;22.27;5.23;;;;;;;7.06;93.76;102036.91;5090041;28;20315;-72
2022/01/17 07:12:36;;;;;;;20.67;4.07;;;;;;;7.08;93.57;102018.34;5090294;28;20259;-72
2022/01/17 07:15:03;;;;;;;20.97;4.67;;;;;;;7.11;94.09;101992.19;5069807;28;20295;-71
2022/01/17 07:17:28;;;;;;;22.33;4.20;;;;;;;7.09;93.92;102002.28;5069968;28;20213;-72
2022/01/17 07:19:53;;;;;;;20.53;4.47;;;;;;;7.14;93.54;102003.38;5069746;28;20189;-73
2022/01/17 07:22:19;;;;;;;25.50;5.10;;;;;;;7.15;93.99;102010.25;5069957;28;20193;-72
2022/01/17 07:24:47;;;;;;;23.20;5.00;;;;;;;7.16;93.12;102006.91;5069907;28;20188;-71
2022/01/17 07:27:13;;;;;;;22.50;4.77;;;;;;;7.14;93.42;102003.38;5069797;28;20258;-73
2022/01/17 07:29:40;;;;;;;25.63;5.43;;;;;;;7.15;94.33;102019.56;5069599;28;20205;-72
2022/01/17 07:32:06;;;;;;;26.87;5.50;;;;;;;7.12;94.68;102007.53;5069729;28;20204;-72
2022/01/17 07:34:32;;;;;;;22.30;4.67;;;;;;;7.15;94.40;102032.28;5068570;28;20181;-71
2022/01/17 07:36:59;;;;;;;32.17;6.70;;;;;;;7.20;94.31;102030.84;5069753;28;20267;-73
2022/01/17 07:39:25;;;;;;;21.10;4.63;;;;;;;7.18;94.55;102027.38;5069562;28;20178;-72
2022/01/17 07:41:50;;;;;;;25.53;5.13;;;;;;;7.16;95.34;102004.34;5069603;28;20189;-73
2022/01/17 07:44:20;;;;;;;25.77;5.70;;;;;;;7.16;95.43;102009.44;5069719;28;20184;-72
2022/01/17 07:46:58;;;;;;;25.90;4.97;;;;;;;7.16;95.15;102013.66;5068241;28;20214;-72
2022/01/17 07:49:25;;;;;;;25.90;6.10;;;;;;;7.21;94.71;102012.22;5051162;28;20224;-71
2022/01/17 07:52:02;;;;;;;22.60;4.73;;;;;;;7.22;94.56;102035.22;5062837;28;20184;-71
2022/01/17 07:54:33;;;;;;;23.77;5.40;;;;;;;7.26;95.24;102038.78;5069526;28;20543;-71
2022/01/17 07:57:00;;;;;;;34.27;5.90;;;;;;;7.28;95.06;102047.41;5067975;28;20551;-73
2022/01/17 07:59:26;;;;;;;22.50;4.27;;;;;;;7.29;94.59;102031.31;5069282;28;20230;-71
2022/01/17 08:01:51;;;;;;;24.83;4.70;;;;;;;7.32;94.63;102037.44;5068173;28;20176;-72
2022/01/17 08:04:17;;;;;;;25.03;4.93;;;;;;;7.36;95.45;102041.91;5069777;28;20223;-73
2022/01/17 08:06:42;;;;;;;32.60;5.47;;;;;;;7.34;95.55;102045.16;5069750;28;20178;-72
2022/01/17 08:09:18;;;;;;;26.30;5.13;;;;;;;7.32;95.80;102062.06;5069441;28;20209;-71
2022/01/17 08:11:43;;;;;;;24.23;4.70;;;;;;;7.31;95.88;102055.19;5073658;28;20188;-72
2022/01/17 08:14:09;;;;;;;23.43;5.67;;;;;;;7.30;95.98;102049.25;5073675;28;20191;-72
2022/01/17 08:16:34;;;;;;;28.50;5.43;;;;;;;7.33;95.75;102048.53;5072124;28;20192;-72
2022/01/17 08:18:59;;;;;;;23.93;5.13;;;;;;;7.35;96.32;102045.25;5073174;28;20197;-72
2022/01/17 08:21:25;;;;;;;22.03;4.87;;;;;;;7.40;96.35;102045.47;5071934;28;20216;-71
2022/01/17 08:23:52;;;;;;;20.07;4.17;;;;;;;7.39;95.84;102039.53;5073304;28;20211;-72
2022/01/17 08:26:18;;;;;;;26.90;5.10;;;;;;;7.42;96.41;102018.41;5073270;28;20217;-72
2022/01/17 08:28:43;;;;;;;24.17;5.50;;;;;;;7.40;96.73;102023.44;5072975;28;20251;-73
2022/01/17 08:31:09;;;;;;;20.97;4.37;;;;;;;7.43;96.49;102007.41;5073203;28;20331;-72
2022/01/17 08:33:35;;;;;;;20.07;4.60;;;;;;;7.45;95.98;102036.38;5071742;28;20280;-72
2022/01/17 08:36:00;;;;;;;25.23;4.47;;;;;;;7.45;97.11;102046.59;5073248;28;20196;-72
2022/01/17 08:38:28;;;;;;;23.30;4.63;;;;;;;7.47;96.54;102022.94;5071385;28;20205;-71
2022/01/17 08:40:55;;;;;;;22.13;4.63;;;;;;;7.53;95.81;102061.47;5071736;28;20224;-71
2022/01/17 08:43:20;;;;;;;24.87;4.73;;;;;;;7.62;95.28;102068.72;5072963;28;20628;-72
2022/01/17 08:45:48;;;;;;;25.70;4.37;;;;;;;7.66;94.67;102079.16;5073224;28;20212;-72
2022/01/17 08:48:13;;;;;;;26.97;5.50;;;;;;;7.68;93.92;102085.19;5066337;28;20236;-72
2022/01/17 08:50:39;;;;;;;24.77;5.33;;;;;;;7.77;93.61;102074.56;5059807;28;20190;-72
2022/01/17 08:53:05;;;;;;;24.07;5.00;;;;;;;7.83;92.08;102060.47;5068240;28;20610;-72
2022/01/17 08:55:30;;;;;;;22.37;5.37;;;;;;;7.89;91.98;102080.28;5072413;28;20207;-74
2022/01/17 08:57:58;;;;;;;25.63;5.03;;;;;;;7.91;91.88;102076.13;5072457;28;20299;-73
2022/01/17 09:00:23;;;;;;;22.77;4.57;;;;;;;8.03;91.06;102076.75;5072644;28;20226;-71
2022/01/17 09:02:48;;;;;;;20.20;4.87;;;;;;;8.06;89.88;102076.91;5071358;28;20185;-72
2022/01/17 09:05:14;;;;;;;32.60;5.33;;;;;;;8.07;90.39;102091.41;5070691;28;20322;-71
2022/01/17 09:07:39;;;;;;;28.57;4.40;;;;;;;8.15;88.98;102090.97;5067867;28;20244;-72
2022/01/17 09:10:05;;;;;;;25.60;5.60;;;;;;;8.22;89.48;102093.06;5057996;28;20245;-71
2022/01/17 09:12:30;;;;;;;25.73;5.03;;;;;;;8.24;89.17;102113.56;5061648;28;20647;-71
2022/01/17 09:14:55;;;;;;;30.73;5.00;;;;;;;8.12;90.78;102123.13;5072843;28;20185;-72
2022/01/17 09:17:21;;;;;;;18.37;4.40;;;;;;;8.03;90.96;102109.91;5071654;28;20217;-72
2022/01/17 09:19:48;;;;;;;20.00;3.80;;;;;;;7.98;91.90;102121.56;5071199;28;20189;-72
2022/01/17 09:22:13;;;;;;;18.77;4.00;;;;;;;7.94;92.10;102124.75;5072520;28;20685;-74
2022/01/17 09:24:39;;;;;;;16.17;3.50;;;;;;;7.98;92.32;102129.22;5081629;28;20515;-71
2022/01/17 09:27:06;;;;;;;21.30;3.93;;;;;;;8.07;91.78;102127.97;5091327;28;20216;-72
2022/01/17 09:29:33;;;;;;;17.70;4.33;;;;;;;8.13;91.46;102122.31;5085682;28;20288;-71
2022/01/17 09:31:59;;;;;;;18.60;4.50;;;;;;;8.13;90.38;102135.94;5072522;28;20204;-73
2022/01/17 09:34:24;;;;;;;25.87;6.03;;;;;;;8.08;90.49;102133.97;5070832;28;20197;-72
2022/01/17 09:36:50;;;;;;;20.47;4.00;;;;;;;8.04;90.61;102130.38;5071970;28;20224;-73
2022/01/17 09:39:16;;;;;;;29.43;5.83;;;;;;;7.97;91.84;102153.81;5071745;28;20173;-71
2022/01/17 09:41:43;;;;;;;27.17;5.10;;;;;;;7.90;92.78;102186.59;5072004;28;20226;-72
2022/01/17 09:44:11;;;;;;;21.40;5.40;;;;;;;7.85;92.83;102175.28;5071906;28;20593;-71
2022/01/17 09:46:44;;;;;;;22.37;5.63;;;;;;;7.84;91.56;102196.47;5071755;28;20181;-72
2022/01/17 09:54:26;;;;;;;17.63;3.17;;;;;;;7.75;89.75;102207.09;5071694;28;20876;-72
2022/01/17 09:56:54;;;;;;;17.73;3.63;;;;;;;7.74;88.37;102235.91;5070325;28;20271;-73
2022/01/17 09:59:20;;;;;;;9.43;2.90;;;;;;;7.73;85.39;102239.25;5071358;28;20231;-73
2022/01/17 10:01:45;;;;;;;10.67;2.37;;;;;;;7.74;84.71;102242.69;5064455;28;20189;-72
2022/01/17 10:04:11;;;;;;;10.97;2.30;;;;;;;7.79;83.43;102248.91;5069945;28;20242;-72
2022/01/17 10:06:39;;;;;;;12.90;2.00;;;;;;;7.79;81.74;102256.56;5071394;28;20638;-73
2022/01/17 10:09:24;;;;;;;11.23;1.90;;;;;;;7.68;79.68;102255.09;5071180;28;20216;-72
2022/01/17 10:12:09;;;;;;;9.40;1.90;;;;;;;7.65;79.28;102249.84;5071330;28;20197;-73
2022/01/17 10:14:57;;;;;;;9.03;2.20;;;;;;;7.80;77.37;102261.75;5071302;28;20592;-72
2022/01/17 10:17:24;;;;;;;10.13;2.57;;;;;;;7.94;77.73;102281.19;5069979;28;20259;-71
2022/01/17 10:20:03;;;;;;;7.30;2.00;;;;;;;7.99;76.11;102259.34;5051330;28;20230;-73
2022/01/17 10:22:41;;;;;;;9.03;1.83;;;;;;;7.89;76.88;102262.22;5068438;28;20219;-72
2022/01/17 10:25:21;;;;;;;8.73;2.20;;;;;;;11.43;66.27;102217.25;5066884;28;20549;-73
2022/01/17 10:28:14;;;;;;;6.93;2.17;;;;;;;15.84;50.71;102221.84;5070705;28;20291;-72
2022/01/17 10:31:01;;;;;;;9.10;2.37;;;;;;;15.37;49.20;102229.44;5070548;28;20197;-73
2022/01/17 10:36:16;;;;;;;12.83;3.37;;;;;;;10.30;63.77;102270.69;5065693;28;20196;-73
2022/01/17 10:38:42;;;;;;;9.97;2.10;;;;;;;9.87;67.03;102279.78;5066636;28;20678;-71
2022/01/17 10:41:07;;;;;;;10.13;2.33;;;;;;;9.34;68.34;102302.00;5070117;28;20538;-72
2022/01/17 10:43:38;;;;;;;10.43;2.33;;;;;;;8.96;71.22;102304.41;5070538;28;20276;-73
2022/01/17 10:46:09;;;;;;;7.17;1.77;;;;;;;8.70;72.10;102302.22;5069123;28;20188;-72
2022/01/17 10:48:39;;;;;;;12.90;2.70;;;;;;;8.45;72.35;102294.13;5070143;28;20213;-72
2022/01/17 10:51:06;;;;;;;11.57;2.87;;;;;;;8.27;73.23;102325.47;5070127;28;20231;-72
2022/01/17 10:53:32;;;;;;;8.63;2.53;;;;;;;8.20;75.45;102325.94;5070232;28;20181;-72
2022/01/17 10:56:06;;;;;;;13.73;2.33;;;;;;;8.04;74.75;102339.53;5070273;28;20291;-71
2022/01/17 10:58:33;;;;;;;9.90;2.47;;;;;;;7.99;74.76;102345.19;5069943;28;20197;-72
2022/01/17 11:01:02;;;;;;;15.80;3.20;;;;;;;8.24;74.01;102353.41;5064380;28;20201;-72
2022/01/17 11:03:33;;;;;;;15.37;2.77;;;;;;;8.21;73.19;102360.88;5058871;28;20258;-72
2022/01/17 11:06:20;;;;;;;10.53;3.03;;;;;;;8.35;73.11;102348.06;5061697;28;20212;-72
2022/01/17 11:08:46;;;;;;;13.23;2.27;;;;;;;8.34;74.62;102359.03;5069579;28;20274;-72
2022/01/17 11:11:12;;;;;;;16.80;3.80;;;;;;;7.75;79.18;102360.06;5069903;28;20683;-71
2022/01/17 11:13:42;;;;;;;14.33;3.10;;;;;;;7.62;79.48;102361.81;5069782;28;20181;-73
2022/01/17 11:16:11;;;;;;;14.47;2.57;;;;;;;7.45;77.11;102376.19;5068019;28;20295;-72
2022/01/17 11:18:36;;;;;;;13.50;2.70;;;;;;;7.27;78.32;102389.56;5050302;28;20213;-72
2022/01/17 11:21:11;;;;;;;12.93;3.00;;;;;;;7.37;77.18;102410.53;5056477;28;20212;-73
2022/01/17 11:23:43;;;;;;;16.70;3.13;;;;;;;7.30;77.87;102403.34;5069708;28;20173;-73
2022/01/17 11:26:09;;;;;;;14.00;2.93;;;;;;;7.03;78.39;102393.22;5068466;28;20200;-72
2022/01/17 11:28:35;;;;;;;13.13;2.47;;;;;;;6.91;77.90;102406.09;5069332;28;20225;-73
2022/01/17 11:31:04;;;;;;;15.77;3.40;;;;;;;7.11;77.05;102404.72;5069526;28;20196;-73
2022/01/17 11:33:29;;;;;;;16.17;2.60;;;;;;;8.73;71.43;102429.16;5069336;28;20197;-72
2022/01/17 11:35:56;;;;;;;17.17;3.70;;;;;;;8.09;72.69;102422.28;5068270;28;20239;-73
2022/01/17 11:38:28;;;;;;;13.00;2.97;;;;;;;7.49;72.52;102428.19;5068092;28;20255;-73
2022/01/17 11:40:55;;;;;;;15.27;3.23;;;;;;;7.26;73.91;102426.88;5069639;28;20212;-73
2022/01/17 11:43:32;;;;;;;14.37;3.17;;;;;;;7.31;73.49;102430.56;5068230;28;20250;-72
2022/01/17 11:45:58;;;;;;;13.20;2.63;;;;;;;7.76;72.10;102420.44;5068492;28;20823;-72
2022/01/17 11:48:30;;;;;;;14.40;3.27;;;;;;;8.58;68.93;102451.34;5067931;28;20220;-71